createdAt,value
2023-04-17T00:00:39.584Z,10.06
2023-04-17T00:03:20.679Z,10.05
2023-04-17T00:05:49.089Z,10.03
2023-04-17T00:08:17.119Z,10.02
2023-04-17T00:10:49.031Z,10.01
2023-04-17T00:13:24.925Z,9.98
2023-04-17T00:15:52.915Z,9.94
2023-04-17T00:18:20.934Z,9.90
2023-04-17T00:20:48.930Z,9.91
2023-04-17T00:23:16.937Z,9.90
2023-04-17T00:25:44.844Z,9.90
2023-04-17T00:28:12.767Z,9.90
2023-04-17T00:30:40.704Z,9.84
2023-04-17T00:33:08.871Z,9.83
2023-04-17T00:35:36.793Z,9.83
2023-04-17T00:38:04.695Z,9.82
2023-04-17T00:40:32.726Z,9.81
2023-04-17T00:43:01.323Z,9.79
2023-04-17T00:45:29.682Z,9.78
2023-04-17T00:47:58.866Z,9.75
2023-04-17T00:50:31.235Z,9.74
2023-04-17T00:52:59.816Z,9.71
2023-04-17T00:55:28.675Z,9.72
2023-04-17T00:57:58.255Z,9.71
2023-04-17T01:00:26.238Z,9.73
2023-04-17T01:02:56.804Z,9.74
2023-04-17T01:05:27.983Z,9.74
2023-04-17T01:07:57.521Z,9.72
2023-04-17T01:10:25.571Z,9.68
2023-04-17T01:13:06.729Z,9.67
2023-04-17T01:15:35.774Z,9.65
2023-04-17T01:18:04.000Z,9.63
2023-04-17T01:20:33.052Z,9.61
2023-04-17T01:23:01.675Z,9.58
2023-04-17T01:25:29.762Z,9.55
2023-04-17T01:27:58.027Z,9.54
2023-04-17T01:30:27.242Z,9.55
2023-04-17T01:32:58.688Z,9.54
2023-04-17T01:35:26.727Z,9.52
2023-04-17T01:37:55.879Z,9.52
2023-04-17T01:40:23.830Z,9.47
2023-04-17T01:42:52.427Z,9.44
2023-04-17T01:45:21.327Z,9.40
2023-04-17T01:47:49.489Z,9.39
2023-04-17T01:50:18.028Z,9.35
2023-04-17T01:52:46.478Z,9.32
2023-04-17T01:55:14.471Z,9.31
2023-04-17T01:57:42.461Z,9.29
2023-04-17T02:00:11.233Z,9.32
2023-04-17T02:02:43.970Z,9.36
2023-04-17T02:05:12.090Z,9.35
2023-04-17T02:07:39.983Z,9.39
2023-04-17T02:10:08.205Z,9.43
2023-04-17T02:12:37.778Z,9.49
2023-04-17T02:15:06.172Z,9.47
2023-04-17T02:17:34.353Z,9.52
2023-04-17T02:20:06.939Z,9.56
2023-04-17T02:22:35.225Z,9.58
2023-04-17T02:25:03.324Z,9.61
2023-04-17T02:27:31.314Z,9.61
2023-04-17T02:29:59.267Z,9.59
2023-04-17T02:32:27.293Z,9.58
2023-04-17T02:34:56.306Z,9.56
2023-04-17T02:37:24.291Z,9.57
2023-04-17T02:39:53.713Z,9.58
2023-04-17T02:42:21.684Z,9.62
2023-04-17T02:44:49.761Z,9.63
2023-04-17T02:47:17.808Z,9.66
2023-04-17T02:49:45.953Z,9.68
2023-04-17T02:52:13.961Z,9.67
2023-04-17T02:54:41.881Z,9.62
2023-04-17T02:57:10.739Z,9.64
2023-04-17T02:59:38.924Z,9.66
2023-04-17T03:02:07.359Z,9.67
2023-04-17T03:04:38.790Z,9.66
2023-04-17T03:07:10.563Z,9.65
2023-04-17T03:09:39.267Z,9.63
2023-04-17T03:12:07.291Z,9.66
2023-04-17T03:14:35.191Z,9.60
2023-04-17T03:17:03.070Z,9.64
2023-04-17T03:19:31.008Z,9.64
2023-04-17T03:21:58.938Z,9.69
2023-04-17T03:24:27.464Z,9.72
2023-04-17T03:26:56.436Z,9.71
2023-04-17T03:29:24.552Z,9.74
2023-04-17T03:31:52.893Z,9.76
2023-04-17T03:34:21.891Z,9.76
2023-04-17T03:36:50.688Z,9.79
2023-04-17T03:39:18.830Z,9.76
2023-04-17T03:41:47.151Z,9.73
2023-04-17T03:44:15.634Z,9.76
2023-04-17T03:46:43.871Z,9.73
2023-04-17T03:49:12.741Z,9.67
2023-04-17T03:51:42.921Z,9.62
2023-04-17T03:54:17.788Z,9.60
2023-04-17T03:56:47.040Z,9.60
2023-04-17T03:59:15.392Z,9.60
2023-04-17T04:01:46.554Z,9.66
2023-04-17T04:04:19.009Z,9.74
2023-04-17T04:06:49.578Z,9.78
2023-04-17T04:09:20.427Z,9.81
2023-04-17T04:11:48.784Z,9.85
2023-04-17T04:14:16.856Z,9.87
2023-04-17T04:16:45.183Z,9.92
2023-04-17T04:19:13.625Z,9.98
2023-04-17T04:21:45.307Z,9.99
2023-04-17T04:24:14.485Z,9.98
2023-04-17T04:26:43.446Z,9.96
2023-04-17T04:29:13.946Z,9.96
2023-04-17T04:31:51.118Z,10.00
2023-04-17T04:34:25.456Z,10.03
2023-04-17T04:36:58.280Z,10.06
2023-04-17T04:39:54.262Z,10.10
2023-04-17T04:42:22.777Z,10.06
2023-04-17T04:45:14.125Z,10.06
2023-04-17T04:47:43.176Z,10.06
2023-04-17T04:50:11.221Z,10.07
2023-04-17T04:52:39.293Z,10.08
2023-04-17T04:55:14.794Z,10.08
2023-04-17T04:57:46.977Z,10.14
2023-04-17T05:00:15.257Z,10.12
2023-04-17T05:02:45.557Z,10.12
2023-04-17T05:05:14.192Z,10.09
2023-04-17T05:07:42.989Z,10.12
2023-04-17T05:10:12.676Z,10.15
2023-04-17T05:12:45.139Z,10.17
2023-04-17T05:15:13.579Z,10.22
2023-04-17T05:17:41.862Z,10.30
2023-04-17T05:20:10.262Z,10.36
2023-04-17T05:22:46.838Z,10.38
2023-04-17T05:25:16.476Z,10.41
2023-04-17T05:27:47.480Z,10.45
2023-04-17T05:30:16.406Z,10.49
2023-04-17T05:32:49.230Z,10.52
2023-04-17T05:35:36.070Z,10.53
2023-04-17T05:38:04.881Z,10.60
2023-04-17T05:40:34.854Z,10.67
2023-04-17T05:43:09.802Z,10.69
2023-04-17T05:45:38.456Z,10.71
2023-04-17T05:48:09.321Z,10.72
2023-04-17T05:50:40.196Z,10.70
2023-04-17T05:53:08.791Z,10.63
2023-04-17T05:55:40.592Z,10.59
2023-04-17T06:00:45.273Z,10.57
2023-04-17T06:03:18.276Z,10.58
2023-04-17T06:05:47.274Z,10.62
2023-04-17T06:08:15.615Z,10.61
2023-04-17T06:10:45.930Z,10.64
2023-04-17T06:13:14.084Z,10.67
2023-04-17T06:15:45.434Z,10.71
2023-04-17T06:18:16.209Z,10.73
2023-04-17T06:20:44.915Z,10.78
2023-04-17T06:23:13.085Z,10.78
2023-04-17T06:25:40.992Z,10.77
2023-04-17T06:28:09.230Z,10.74
2023-04-17T06:30:38.009Z,10.78
2023-04-17T06:33:07.437Z,10.80
2023-04-17T06:35:36.712Z,10.78
2023-04-17T06:38:15.044Z,10.77
2023-04-17T06:40:45.121Z,10.75
2023-04-17T06:43:16.011Z,10.83
2023-04-17T06:45:44.155Z,10.86
2023-04-17T06:48:12.045Z,10.96
2023-04-17T06:50:40.144Z,11.11
2023-04-17T06:53:08.302Z,11.35
2023-04-17T06:55:36.371Z,11.60
2023-04-17T06:58:07.908Z,11.68
2023-04-17T07:00:36.199Z,11.84
2023-04-17T07:03:05.118Z,11.95
2023-04-17T07:05:33.380Z,11.93
2023-04-17T07:08:01.357Z,12.04
2023-04-17T07:10:29.466Z,11.98
2023-04-17T07:12:57.403Z,12.11
2023-04-17T07:15:26.815Z,12.12
2023-04-17T07:17:55.178Z,12.16
2023-04-17T07:20:23.392Z,12.18
2023-04-17T07:22:51.333Z,12.27
2023-04-17T07:25:20.117Z,12.48
2023-04-17T07:27:48.128Z,12.71
2023-04-17T07:30:16.128Z,12.94
2023-04-17T07:32:44.103Z,13.04
2023-04-17T07:35:12.048Z,13.22
2023-04-17T07:37:39.990Z,13.24
2023-04-17T07:40:09.796Z,13.45
2023-04-17T07:42:38.031Z,13.55
2023-04-17T07:45:06.365Z,13.51
2023-04-17T07:47:34.365Z,13.63
2023-04-17T07:50:02.483Z,13.40
2023-04-17T07:52:31.092Z,13.30
2023-04-17T07:54:59.089Z,13.55
2023-04-17T07:57:26.982Z,13.85
2023-04-17T07:59:54.887Z,13.95
2023-04-17T08:02:23.152Z,14.08
2023-04-17T08:04:52.423Z,14.36
2023-04-17T08:07:20.731Z,14.64
2023-04-17T08:09:51.176Z,14.67
2023-04-17T08:12:19.412Z,14.74
2023-04-17T08:14:47.491Z,14.65
2023-04-17T08:17:20.312Z,14.23
2023-04-17T08:19:51.022Z,13.94
2023-04-17T08:22:21.916Z,14.02
2023-04-17T08:24:50.194Z,14.01
2023-04-17T08:27:18.061Z,14.24
2023-04-17T08:29:46.070Z,14.29
2023-04-17T08:32:15.432Z,14.27
2023-04-17T08:34:44.512Z,14.24
2023-04-17T08:37:12.604Z,14.20
2023-04-17T08:39:40.471Z,14.21
2023-04-17T08:42:17.764Z,14.31
2023-04-17T08:44:46.939Z,14.60
2023-04-17T08:47:17.488Z,14.73
2023-04-17T08:49:46.172Z,14.93
2023-04-17T08:52:14.574Z,14.92
2023-04-17T08:54:42.499Z,15.05
2023-04-17T08:57:10.617Z,15.06
2023-04-17T08:59:38.648Z,14.97
2023-04-17T09:02:07.702Z,14.70
2023-04-17T09:04:37.430Z,14.80
2023-04-17T09:07:07.185Z,14.78
2023-04-17T09:09:48.388Z,14.87
2023-04-17T09:12:16.864Z,14.91
2023-04-17T09:14:45.042Z,14.93
2023-04-17T09:17:14.546Z,15.18
2023-04-17T09:20:01.678Z,15.50
2023-04-17T09:22:29.570Z,15.91
2023-04-17T09:24:57.861Z,16.05
2023-04-17T09:27:26.974Z,15.96
2023-04-17T09:29:56.560Z,16.11
2023-04-17T09:32:26.009Z,16.32
2023-04-17T09:34:54.604Z,16.33
2023-04-17T09:37:23.117Z,16.36
2023-04-17T09:39:59.227Z,16.32
2023-04-17T09:42:27.746Z,16.29
2023-04-17T09:44:55.839Z,16.46
2023-04-17T09:47:24.240Z,16.43
2023-04-17T09:49:53.109Z,16.42
2023-04-17T09:52:23.675Z,16.26
2023-04-17T09:54:53.849Z,15.91
2023-04-17T09:57:22.403Z,15.87
2023-04-17T09:59:51.049Z,16.01
2023-04-17T10:02:20.128Z,15.99
2023-04-17T10:04:48.346Z,16.02
2023-04-17T10:07:17.313Z,16.00
2023-04-17T10:09:45.981Z,16.15
2023-04-17T10:12:15.794Z,16.20
2023-04-17T10:14:46.714Z,16.19
2023-04-17T10:17:24.969Z,16.10
2023-04-17T10:19:53.068Z,16.19
2023-04-17T10:22:21.010Z,16.05
2023-04-17T10:24:52.939Z,16.17
2023-04-17T10:27:27.156Z,16.25
2023-04-17T10:29:59.465Z,16.05
2023-04-17T10:32:31.069Z,15.94
2023-04-17T10:34:59.167Z,15.89
2023-04-17T10:37:46.550Z,15.79
2023-04-17T10:40:21.372Z,15.83
2023-04-17T10:43:01.798Z,15.94
2023-04-17T10:45:48.567Z,16.11
2023-04-17T10:48:20.082Z,16.21
2023-04-17T10:50:48.092Z,16.42
2023-04-17T10:53:55.223Z,16.53
2023-04-17T10:56:26.587Z,16.54
2023-04-17T10:58:58.748Z,16.64
2023-04-17T11:01:29.150Z,16.78
2023-04-17T11:03:59.694Z,16.92
2023-04-17T11:06:28.953Z,17.17
2023-04-17T11:08:57.654Z,17.25
2023-04-17T11:11:42.992Z,17.22
2023-04-17T11:14:22.661Z,17.21
2023-04-17T11:16:51.390Z,17.28
2023-04-17T11:19:19.425Z,17.54
2023-04-17T11:21:48.292Z,17.46
2023-04-17T11:24:29.909Z,17.32
2023-04-17T11:27:03.842Z,17.10
2023-04-17T11:29:32.102Z,17.21
2023-04-17T11:32:01.304Z,17.33
2023-04-17T11:34:30.414Z,17.40
2023-04-17T11:36:59.574Z,17.36
2023-04-17T11:39:34.475Z,17.44
2023-04-17T11:42:05.484Z,17.26
2023-04-17T11:44:33.752Z,17.38
2023-04-17T11:47:02.235Z,17.33
2023-04-17T11:49:38.114Z,17.44
2023-04-17T11:52:06.222Z,17.46
2023-04-17T11:54:38.445Z,17.57
2023-04-17T11:57:11.350Z,17.61
2023-04-17T11:59:39.978Z,17.72
2023-04-17T12:02:08.768Z,17.83
2023-04-17T12:04:37.836Z,17.65
2023-04-17T12:07:06.951Z,17.67
2023-04-17T12:09:35.650Z,17.75
2023-04-17T12:12:07.472Z,17.62
2023-04-17T12:14:36.071Z,17.68
2023-04-17T12:17:04.065Z,17.66
2023-04-17T12:19:32.877Z,17.72
2023-04-17T12:22:00.894Z,17.87
2023-04-17T12:24:28.952Z,17.74
2023-04-17T12:26:58.671Z,17.78
2023-04-17T12:29:42.397Z,17.86
2023-04-17T12:32:12.635Z,17.93
2023-04-17T12:34:40.916Z,17.97
2023-04-17T12:37:09.165Z,18.06
2023-04-17T12:39:37.138Z,17.94
2023-04-17T12:42:05.200Z,18.02
2023-04-17T12:44:33.199Z,18.08
2023-04-17T12:47:01.118Z,18.18
2023-04-17T12:49:29.088Z,18.16
2023-04-17T12:51:57.005Z,18.28
2023-04-17T12:54:24.881Z,18.43
2023-04-17T12:56:52.855Z,18.58
2023-04-17T12:59:20.837Z,18.58
2023-04-17T13:01:49.027Z,18.60
2023-04-17T13:04:17.527Z,18.44
2023-04-17T13:06:46.102Z,18.40
2023-04-17T13:09:14.759Z,18.41
2023-04-17T13:11:42.927Z,18.56
2023-04-17T13:14:11.039Z,18.71
2023-04-17T13:16:39.348Z,18.65
2023-04-17T13:19:07.330Z,18.69
2023-04-17T13:21:35.296Z,18.39
2023-04-17T13:24:03.306Z,18.08
2023-04-17T13:26:31.380Z,18.10
2023-04-17T13:28:59.364Z,18.05
2023-04-17T13:31:28.446Z,18.13
2023-04-17T13:33:56.509Z,18.29
2023-04-17T13:36:24.581Z,18.29
2023-04-17T13:38:52.518Z,18.31
2023-04-17T13:41:21.006Z,18.29
2023-04-17T13:43:49.059Z,18.25
2023-04-17T13:46:17.119Z,18.22
2023-04-17T13:48:45.527Z,18.33
2023-04-17T13:51:14.126Z,18.51
2023-04-17T13:53:42.152Z,18.63
2023-04-17T13:56:10.268Z,18.62
2023-04-17T13:58:40.468Z,18.50
2023-04-17T14:01:09.162Z,18.56
2023-04-17T14:03:40.146Z,18.43
2023-04-17T14:06:09.392Z,18.37
2023-04-17T14:08:37.380Z,18.31
2023-04-17T14:11:05.479Z,18.44
2023-04-17T14:13:33.437Z,18.37
2023-04-17T14:16:01.643Z,18.38
2023-04-17T14:18:29.724Z,18.17
2023-04-17T14:20:57.674Z,18.22
2023-04-17T14:23:25.661Z,18.37
2023-04-17T14:25:53.630Z,18.36
2023-04-17T14:28:21.649Z,18.41
2023-04-17T14:30:49.657Z,18.24
2023-04-17T14:33:17.792Z,18.04
2023-04-17T14:35:45.812Z,18.14
2023-04-17T14:38:13.753Z,18.12
2023-04-17T14:40:41.639Z,17.80
2023-04-17T14:43:09.488Z,17.24
2023-04-17T14:45:38.071Z,17.38
2023-04-17T14:48:06.065Z,17.51
2023-04-17T14:50:34.195Z,17.60
2023-04-17T14:53:03.571Z,17.75
2023-04-17T14:55:31.572Z,17.84
2023-04-17T14:57:59.601Z,17.93
2023-04-17T15:00:27.523Z,17.73
2023-04-17T15:02:55.693Z,17.82
2023-04-17T15:05:23.908Z,17.77
2023-04-17T15:07:51.985Z,17.66
2023-04-17T15:10:20.107Z,17.28
2023-04-17T15:12:47.998Z,16.93
2023-04-17T15:15:15.942Z,16.25
2023-04-17T15:17:43.947Z,15.83
2023-04-17T15:20:12.259Z,15.72
2023-04-17T15:22:40.209Z,15.49
2023-04-17T15:25:08.243Z,15.34
2023-04-17T15:27:36.201Z,15.29
2023-04-17T15:30:08.877Z,15.07
2023-04-17T15:32:37.008Z,14.83
2023-04-17T15:35:05.616Z,14.60
2023-04-17T15:37:33.617Z,14.43
2023-04-17T15:40:01.706Z,14.26
2023-04-17T15:42:30.555Z,14.08
2023-04-17T15:44:58.594Z,13.78
2023-04-17T15:47:26.601Z,13.72
2023-04-17T15:49:54.500Z,13.68
2023-04-17T15:52:22.569Z,13.65
2023-04-17T15:54:50.613Z,13.67
2023-04-17T15:57:18.564Z,13.69
2023-04-17T15:59:46.498Z,13.67
2023-04-17T16:02:15.337Z,13.69
2023-04-17T16:04:43.909Z,13.54
2023-04-17T16:07:12.359Z,13.45
2023-04-17T16:09:40.827Z,13.38
2023-04-17T16:12:09.889Z,13.24
2023-04-17T16:14:38.504Z,13.27
2023-04-17T16:17:06.564Z,13.29
2023-04-17T16:19:35.475Z,13.29
2023-04-17T16:22:03.381Z,13.29
2023-04-17T16:24:31.485Z,13.28
2023-04-17T16:27:01.196Z,13.24
2023-04-17T16:29:29.154Z,13.24
2023-04-17T16:31:57.312Z,13.22
2023-04-17T16:34:25.473Z,13.22
2023-04-17T16:36:53.377Z,13.24
2023-04-17T16:39:21.525Z,13.23
2023-04-17T16:41:50.149Z,13.20
2023-04-17T16:44:18.116Z,13.19
2023-04-17T16:49:20.131Z,13.07
2023-04-17T16:51:48.161Z,13.02
2023-04-17T16:54:16.278Z,13.06
2023-04-17T16:56:44.263Z,13.03
2023-04-17T16:59:12.425Z,12.99
2023-04-17T17:01:40.966Z,12.93
2023-04-17T17:04:09.197Z,12.84
2023-04-17T17:06:37.217Z,12.66
2023-04-17T17:09:06.175Z,12.62
2023-04-17T17:11:34.202Z,12.64
2023-04-17T17:14:02.113Z,12.52
2023-04-17T17:16:30.043Z,12.42
2023-04-17T17:18:57.952Z,12.27
2023-04-17T17:21:26.759Z,12.19
2023-04-17T17:23:54.718Z,11.93
2023-04-17T17:26:22.679Z,12.00
2023-04-17T17:28:53.277Z,11.98
2023-04-17T17:31:21.474Z,12.04
2023-04-17T17:33:54.150Z,12.07
2023-04-17T17:36:22.245Z,12.11
2023-04-17T17:38:56.031Z,12.09
2023-04-17T17:41:24.389Z,12.08
2023-04-17T17:43:52.701Z,12.13
2023-04-17T17:46:21.361Z,12.11
2023-04-17T17:48:49.625Z,12.13
2023-04-17T17:51:17.627Z,12.09
2023-04-17T17:53:45.642Z,12.09
2023-04-17T17:56:14.021Z,12.08
2023-04-17T17:58:41.986Z,12.10
2023-04-17T18:01:12.181Z,12.10
2023-04-17T18:03:40.333Z,12.05
2023-04-17T18:06:08.634Z,12.05
2023-04-17T18:08:38.436Z,11.97
2023-04-17T18:11:06.448Z,11.85
2023-04-17T18:13:34.390Z,11.82
2023-04-17T18:16:05.695Z,11.79
2023-04-17T18:18:33.582Z,11.77
2023-04-17T18:21:05.881Z,11.74
2023-04-17T18:23:33.955Z,11.72
2023-04-17T18:26:02.971Z,11.71
2023-04-17T18:28:31.026Z,11.67
2023-04-17T18:30:59.063Z,11.62
2023-04-17T18:33:28.953Z,11.57
2023-04-17T18:35:59.370Z,11.55
2023-04-17T18:38:27.388Z,11.53
2023-04-17T18:41:00.620Z,11.54
2023-04-17T18:43:28.657Z,11.50
2023-04-17T18:45:56.622Z,11.43
2023-04-17T18:48:24.751Z,11.39
2023-04-17T18:50:52.668Z,11.38
2023-04-17T18:53:21.349Z,11.34
2023-04-17T18:55:49.812Z,11.36
2023-04-17T18:58:17.822Z,11.41
2023-04-17T19:00:45.868Z,11.42
2023-04-17T19:03:13.839Z,11.43
2023-04-17T19:05:41.913Z,11.42
2023-04-17T19:08:10.000Z,11.46
2023-04-17T19:10:39.592Z,11.50
2023-04-17T19:13:09.945Z,11.55
2023-04-17T19:15:38.088Z,11.56
2023-04-17T19:18:06.830Z,11.60
2023-04-17T19:20:36.028Z,11.63
2023-04-17T19:23:04.126Z,11.62
2023-04-17T19:25:32.137Z,11.62
2023-04-17T19:28:00.202Z,11.61
2023-04-17T19:30:28.242Z,11.62
2023-04-17T19:32:56.348Z,11.56
2023-04-17T19:35:24.344Z,11.59
2023-04-17T19:37:52.268Z,11.59
2023-04-17T19:40:24.989Z,11.61
2023-04-17T19:42:54.149Z,11.60
2023-04-17T19:45:22.086Z,11.55
2023-04-17T19:47:56.332Z,11.57
2023-04-17T19:50:26.469Z,11.55
2023-04-17T19:52:55.294Z,11.56
2023-04-17T19:55:23.864Z,11.56
2023-04-17T19:57:52.370Z,11.56
2023-04-17T20:00:20.358Z,11.60
2023-04-17T20:02:48.616Z,11.57
2023-04-17T20:05:18.522Z,11.55
2023-04-17T20:07:46.449Z,11.57
2023-04-17T20:10:14.532Z,11.56
2023-04-17T20:12:42.472Z,11.52
2023-04-17T20:15:10.804Z,11.47
2023-04-17T20:17:38.823Z,11.47
2023-04-17T20:20:07.163Z,11.45
2023-04-17T20:22:35.998Z,11.38
2023-04-17T20:25:04.273Z,11.34
2023-04-17T20:27:32.236Z,11.27
2023-04-17T20:30:00.243Z,11.21
2023-04-17T20:32:28.405Z,11.14
2023-04-17T20:34:56.452Z,11.12
2023-04-17T20:37:24.600Z,11.03
2023-04-17T20:39:52.642Z,10.99
2023-04-17T20:42:20.813Z,10.93
2023-04-17T20:44:48.751Z,10.93
2023-04-17T20:47:16.673Z,10.92
2023-04-17T20:49:44.501Z,10.83
2023-04-17T20:52:12.374Z,10.76
2023-04-17T20:54:40.361Z,10.66
2023-04-17T20:57:08.435Z,10.71
2023-04-17T20:59:37.425Z,10.73
2023-04-17T21:02:05.829Z,10.71
2023-04-17T21:04:34.140Z,10.69
2023-04-17T21:07:02.514Z,10.68
2023-04-17T21:09:30.815Z,10.58
2023-04-17T21:11:58.828Z,10.62
2023-04-17T21:14:28.095Z,10.60
2023-04-17T21:16:58.634Z,10.59
2023-04-17T21:19:30.831Z,10.54
2023-04-17T21:21:58.943Z,10.48
2023-04-17T21:24:26.876Z,10.47
2023-04-17T21:26:58.617Z,10.48
2023-04-17T21:29:27.613Z,10.41
2023-04-17T21:31:56.539Z,10.44
2023-04-17T21:34:24.950Z,10.35
2023-04-17T21:36:55.801Z,10.36
2023-04-17T21:39:24.259Z,10.28
2023-04-17T21:41:52.266Z,10.33
2023-04-17T21:44:20.234Z,10.29
2023-04-17T21:46:48.318Z,10.29
2023-04-17T21:49:16.703Z,10.34
2023-04-17T21:51:44.660Z,10.32
2023-04-17T21:54:12.720Z,10.30
2023-04-17T21:56:40.832Z,10.29
2023-04-17T21:59:09.607Z,10.27
2023-04-17T22:01:37.690Z,10.27
2023-04-17T22:04:05.668Z,10.25
2023-04-17T22:06:36.941Z,10.24
2023-04-17T22:09:05.286Z,10.33
2023-04-17T22:11:33.182Z,10.25
2023-04-17T22:14:01.114Z,10.31
2023-04-17T22:16:28.991Z,10.38
2023-04-17T22:18:56.913Z,10.43
2023-04-17T22:21:24.848Z,10.46
2023-04-17T22:23:52.820Z,10.46
2023-04-17T22:26:21.293Z,10.49
2023-04-17T22:28:49.220Z,10.52
2023-04-17T22:31:17.264Z,10.53
2023-04-17T22:33:45.266Z,10.47
2023-04-17T22:36:13.222Z,10.45
2023-04-17T22:38:41.309Z,10.45
2023-04-17T22:41:09.260Z,10.42
2023-04-17T22:43:37.153Z,10.37
2023-04-17T22:46:05.248Z,10.33
2023-04-17T22:48:35.086Z,10.25
2023-04-17T22:51:03.477Z,10.16
2023-04-17T22:53:31.480Z,10.07
2023-04-17T22:56:00.486Z,9.98
2023-04-17T22:58:29.862Z,9.83
2023-04-17T23:00:57.789Z,9.76
2023-04-17T23:03:25.837Z,9.66
2023-04-17T23:05:54.052Z,9.57
2023-04-17T23:08:22.150Z,9.40
2023-04-17T23:10:57.681Z,9.29
2023-04-17T23:13:28.468Z,9.22
2023-04-17T23:15:56.471Z,9.17
2023-04-17T23:18:24.583Z,9.05
2023-04-17T23:20:52.795Z,8.98
2023-04-17T23:23:20.921Z,8.97
2023-04-17T23:25:49.057Z,8.94
2023-04-17T23:28:17.100Z,8.93
2023-04-17T23:30:44.999Z,8.89
2023-04-17T23:33:13.294Z,8.89
2023-04-17T23:35:41.374Z,8.86
2023-04-17T23:38:09.377Z,8.83
2023-04-17T23:40:37.502Z,8.82
2023-04-17T23:43:06.185Z,8.84
2023-04-17T23:45:34.150Z,8.88
2023-04-17T23:48:02.153Z,8.93
2023-04-17T23:50:30.177Z,8.98
2023-04-17T23:52:58.133Z,8.97
2023-04-17T23:55:27.115Z,9.01
2023-04-17T23:57:56.247Z,8.96
